Kiso — 3EPY3 — position and weather

sailwx.info

Track history (hours):
 
Tides and Currents Weather Stations Pressure Air Temp Water Temp Dewpoint Dewpoint Depression Visibility Wind Speed Wind Dir Waves Ship Positions

Kiso

Last reported at 2018-Jul-09 18:56 UTC. Time now 2018-Jul-23 00:07 UTC.
Position N 48°30' W 125°60'.
Warning: this ship's position is 13 days out of date.

Length 170 m; draft 11.5 m.

Type: Ship (hazmat cat A). MMSI: 356958000.

Date/timePositionNaut miles runAvg speedWind from/ knotsBaromVisibWave heightAir tempDewpointWater temp
2018-Jul-09 18:56N 48°30' W 125°60'612.6
2018-Jul-09 18:28N 48°31' W 125°51'713.0
2018-Jul-09 17:58N 48°31' W 125°41'1412.8
2018-Jul-09 16:52N 48°31' W 125°20'512.7
2018-Jul-09 16:28N 48°31' W 125°12'612.5
2018-Jul-09 15:59N 48°31' W 125°03'612.5
2018-Jul-09 15:30N 48°31' W 124°54'713.6
2018-Jul-09 15:00N 48°31' W 124°44'714.3
2018-Jul-09 14:30N 48°28' W 124°34'714.4
2018-Jul-09 14:00N 48°25' W 124°24'714.5
2018-Jul-09 13:30N 48°22' W 124°14'714.3
2018-Jul-09 13:00N 48°20' W 124°04'714.0
2018-Jul-09 12:29N 48°17' W 123°53'914.7
2018-Jul-09 11:51N 48°16' W 123°39'813.0
2018-Jul-09 11:13N 48°18' W 123°28'312.8
2018-Jul-09 11:00N 48°21' W 123°26'5 8.9
2018-Jul-09 10:29N 48°23' W 123°19'611.9
2018-Jul-09 10:00N 48°26' W 123°12'713.8
2018-Jul-09 09:30N 48°33' W 123°13'713.5
2018-Jul-09 09:00N 48°39' W 123°15'510.8
2018-Jul-09 08:30N 48°44' W 123°10'612.0
2018-Jul-09 08:00N 48°47' W 123°02'510.6
2018-Jul-09 07:30N 48°52' W 123°05'612.6
2018-Jul-09 07:00N 48°56' W 123°12'612.2
2018-Jul-09 06:30N 49°00' W 123°19'611.9
2018-Jul-09 05:59N 49°05' W 123°25'613.2
2018-Jul-09 05:31N 49°11' W 123°22'612.7
2018-Jul-09 05:00N 49°17' W 123°19'611.4
2018-Jul-09 04:30N 49°19' W 123°11'4 7.4
2018-Jul-09 04:01N 49°18' W 123°06'4 7.7
2018-Jul-09 03:30N 49°18' W 122°60'1 2.9
2018-Jul-09 02:59N 49°18' W 122°58'0 0.2
2018-Jul-09 02:30N 49°18' W 122°57'2 4.4
2018-Jul-09 02:00N 49°18' W 122°54'1 2.5
2018-Jul-09 01:30N 49°17' W 122°52'0 0.0
2018-Jul-09 00:59N 49°17' W 122°52'0 0.0
2018-Jul-09 00:29N 49°17' W 122°52'0 0.0
2018-Jul-08 23:59N 49°17' W 122°52'0 0.0
2018-Jul-08 23:29N 49°17' W 122°52'0 0.0
2018-Jul-08 22:59N 49°17' W 122°52'0 0.0
2018-Jul-08 22:29N 49°17' W 122°52'0 0.0
2018-Jul-08 21:53N 49°17' W 122°52'0 0.0
2018-Jul-08 21:29N 49°17' W 122°52'0 0.0
2018-Jul-08 20:59N 49°17' W 122°52'0 0.0
2018-Jul-08 20:29N 49°17' W 122°52'0 0.0
2018-Jul-08 19:59N 49°17' W 122°52'0 0.0
2018-Jul-08 19:26N 49°17' W 122°52'0 0.0
2018-Jul-08 18:59N 49°17' W 122°52'0 0.0
2018-Jul-08 18:29N 49°17' W 122°52'0 0.0
2018-Jul-08 17:59N 49°17' W 122°52'0 0.0
2018-Jul-08 17:23N 49°17' W 122°52'0 0.0
2018-Jul-08 16:59N 49°17' W 122°52'0 0.0
2018-Jul-08 16:29N 49°17' W 122°52'0 0.0
2018-Jul-08 15:59N 49°17' W 122°52'0 0.0
2018-Jul-08 15:29N 49°17' W 122°52'0 0.0
2018-Jul-08 14:59N 49°17' W 122°52'0 0.0
2018-Jul-08 14:29N 49°17' W 122°52'0 0.0
2018-Jul-08 13:59N 49°17' W 122°52'0 0.0
2018-Jul-08 13:29N 49°17' W 122°52'0 0.0
2018-Jul-08 12:59N 49°17' W 122°52'0 0.0
2018-Jul-08 12:29N 49°17' W 122°52'0 0.0
2018-Jul-08 11:59N 49°17' W 122°52'0 0.0
2018-Jul-08 11:29N 49°17' W 122°52'0 0.0
2018-Jul-08 10:59N 49°17' W 122°52'0 0.0
2018-Jul-08 10:29N 49°17' W 122°52'0 0.0
2018-Jul-08 09:59N 49°17' W 122°52'0 0.0
2018-Jul-08 09:29N 49°17' W 122°52'0 0.0
2018-Jul-08 08:59N 49°17' W 122°52'0 0.0
2018-Jul-08 08:29N 49°17' W 122°52'0 0.0
2018-Jul-08 07:59N 49°17' W 122°52'0 0.0
2018-Jul-08 07:29N 49°17' W 122°52'0 0.0
2018-Jul-08 06:56N 49°17' W 122°52'0 0.0
2018-Jul-08 06:29N 49°17' W 122°52'0 0.0
2018-Jul-08 05:56N 49°17' W 122°52'0 0.0
2018-Jul-08 05:26N 49°17' W 122°52'0 0.0
2018-Jul-08 04:59N 49°17' W 122°52'0 0.0
2018-Jul-08 04:29N 49°17' W 122°52'0 0.0
2018-Jul-08 03:59N 49°17' W 122°52'0 0.0
2018-Jul-08 03:29N 49°17' W 122°52'0 0.0
2018-Jul-08 02:59N 49°17' W 122°52'0 0.0
2018-Jul-08 02:23N 49°17' W 122°52'0 0.0
2018-Jul-08 01:59N 49°17' W 122°52'0 0.0
2018-Jul-08 01:29N 49°17' W 122°52'0 0.0
2018-Jul-08 00:59N 49°17' W 122°52'0 0.0
2018-Jul-08 00:29N 49°17' W 122°52'0 0.0
2018-Jul-07 23:53N 49°17' W 122°52'0 0.0
2018-Jul-07 23:29N 49°17' W 122°52'0 0.0
2018-Jul-07 22:59N 49°17' W 122°52'0 0.0
2018-Jul-07 22:29N 49°17' W 122°52'0 0.0
2018-Jul-07 21:59N 49°17' W 122°52'0 0.0
2018-Jul-07 21:29N 49°17' W 122°52'0 0.0
2018-Jul-07 20:59N 49°17' W 122°52'0 0.0
2018-Jul-07 20:29N 49°17' W 122°52'0 0.0
2018-Jul-07 19:59N 49°17' W 122°52'0 0.0
2018-Jul-07 19:29N 49°17' W 122°52'0 0.0
2018-Jul-07 18:59N 49°17' W 122°52'0 0.0
2018-Jul-07 18:29N 49°17' W 122°52'0 0.0
2018-Jul-07 17:59N 49°17' W 122°52'0 0.0
2018-Jul-07 17:29N 49°17' W 122°52'0 0.0
2018-Jul-07 16:59N 49°17' W 122°52'0 0.0
2018-Jul-07 16:29N 49°17' W 122°52'0 0.0
2018-Jul-07 16:00N 49°17' W 122°52'1 2.2
2018-Jul-07 15:30N 49°18' W 122°54'3 5.2
2018-Jul-07 14:57N 49°18' W 122°58'0 0.0
2018-Jul-07 14:30N 49°18' W 122°58'0 0.0
2018-Jul-07 13:57N 49°18' W 122°58'0 0.0
2018-Jul-07 13:27N 49°18' W 122°58'0 0.0
2018-Jul-07 13:00N 49°18' W 122°58'0 0.0
2018-Jul-07 12:27N 49°18' W 122°58'0 0.0
2018-Jul-07 12:00N 49°18' W 122°58'0 0.0
2018-Jul-07 11:30N 49°18' W 122°58'0 0.0
2018-Jul-07 11:00N 49°18' W 122°58'0 0.0
2018-Jul-07 10:27N 49°18' W 122°58'0 0.0
2018-Jul-07 10:00N 49°18' W 122°58'0 0.0
2018-Jul-07 09:27N 49°18' W 122°58'0 0.0
2018-Jul-07 09:00N 49°18' W 122°58'0 0.0
2018-Jul-07 08:30N 49°18' W 122°58'0 0.0
2018-Jul-07 08:00N 49°18' W 122°58'0 0.1
2018-Jul-07 07:30N 49°18' W 122°58'0 0.2
2018-Jul-07 06:57N 49°18' W 122°58'0 0.2
2018-Jul-07 06:27N 49°18' W 122°58'0 0.1
2018-Jul-07 06:00N 49°18' W 122°58'0 0.0
2018-Jul-07 05:30N 49°18' W 122°58'0 0.0
2018-Jul-07 04:57N 49°18' W 122°58'0 0.1
2018-Jul-07 04:30N 49°18' W 122°58'0 0.0
2018-Jul-07 03:57N 49°18' W 122°58'0 0.0
2018-Jul-07 03:30N 49°18' W 122°58'0 0.0
2018-Jul-07 02:54N 49°18' W 122°58'0 0.0
2018-Jul-07 02:21N 49°18' W 122°58'0 0.1
2018-Jul-07 02:00N 49°18' W 122°58'0 0.1
2018-Jul-07 01:30N 49°18' W 122°58'0 0.2
2018-Jul-07 01:00N 49°18' W 122°58'0 0.3
2018-Jul-07 00:30N 49°18' W 122°58'0 0.1
2018-Jul-07 00:00N 49°18' W 122°58'0 0.1
2018-Jul-06 23:30N 49°18' W 122°58'0 0.0
2018-Jul-06 22:51N 49°18' W 122°58'0 0.0
2018-Jul-06 22:30N 49°18' W 122°58'0 0.0
2018-Jul-06 22:00N 49°18' W 122°58'0 0.0
2018-Jul-06 21:30N 49°18' W 122°58'0 0.0
2018-Jul-06 21:00N 49°18' W 122°58'0 0.0
2018-Jul-06 20:30N 49°18' W 122°58'0 0.0
2018-Jul-06 20:00N 49°18' W 122°58'0 0.1
2018-Jul-06 19:30N 49°18' W 122°58'0 0.0
2018-Jul-06 18:57N 49°18' W 122°58'0 0.1
2018-Jul-06 18:30N 49°18' W 122°58'0 0.0
2018-Jul-06 18:00N 49°18' W 122°58'0 0.1
2018-Jul-06 17:30N 49°18' W 122°58'0 0.1
2018-Jul-06 17:00N 49°18' W 122°58'0 0.2
2018-Jul-06 16:30N 49°18' W 122°58'0 0.0
2018-Jul-06 15:54N 49°18' W 122°58'0 0.1
2018-Jul-06 15:27N 49°18' W 122°58'0 0.0
2018-Jul-06 14:57N 49°18' W 122°58'0 0.1
2018-Jul-06 14:30N 49°18' W 122°58'0 0.0
2018-Jul-06 14:00N 49°18' W 122°58'0 0.0
2018-Jul-06 13:24N 49°18' W 122°58'0 0.0
2018-Jul-06 13:00N 49°18' W 122°58'0 0.0
2018-Jul-06 12:30N 49°18' W 122°58'0 0.0
2018-Jul-06 11:57N 49°18' W 122°58'0 0.0
2018-Jul-06 11:24N 49°18' W 122°58'0 0.0
2018-Jul-06 10:57N 49°18' W 122°58'0 0.0
2018-Jul-06 10:27N 49°18' W 122°58'0 0.0
2018-Jul-06 09:57N 49°18' W 122°58'0 0.0
2018-Jul-06 09:30N 49°18' W 122°58'0 0.0
2018-Jul-06 09:00N 49°18' W 122°58'0 0.0
2018-Jul-06 08:18N 49°18' W 122°58'0 0.0
2018-Jul-06 08:00N 49°18' W 122°58'0 0.0
2018-Jul-06 07:30N 49°18' W 122°58'0 0.1
2018-Jul-06 06:57N 49°18' W 122°58'0 0.3
2018-Jul-06 06:27N 49°18' W 122°58'0 0.2
2018-Jul-06 05:57N 49°18' W 122°58'0 0.1
2018-Jul-06 05:30N 49°18' W 122°58'0 0.0
2018-Jul-06 04:57N 49°18' W 122°58'0 0.1
2018-Jul-06 04:30N 49°18' W 122°58'0 0.0
2018-Jul-06 03:57N 49°18' W 122°58'0 0.0
2018-Jul-06 03:30N 49°18' W 122°58'0 0.0
2018-Jul-06 03:00N 49°18' W 122°58'0 0.0
2018-Jul-06 02:30N 49°18' W 122°58'0 0.0
2018-Jul-06 02:00N 49°18' W 122°58'0 0.0
2018-Jul-06 01:27N 49°18' W 122°58'0 0.0
2018-Jul-06 00:57N 49°18' W 122°58'0 0.0
2018-Jul-06 00:27N 49°18' W 122°58'0 0.0
2018-Jul-05 23:48N 49°18' W 122°58'0 0.1
2018-Jul-05 23:27N 49°18' W 122°58'0 0.1
2018-Jul-05 22:36N 49°18' W 122°58'0 0.0
2018-Jul-05 22:18N 49°18' W 122°58'0 0.2
2018-Jul-05 21:54N 49°18' W 122°58'0 0.2
2018-Jul-05 21:24N 49°18' W 122°58'0 0.2
2018-Jul-05 21:00N 49°18' W 122°58'0 0.1
2018-Jul-05 20:24N 49°18' W 122°58'0 0.0
2018-Jul-05 20:00N 49°18' W 122°58'0 0.0
2018-Jul-05 19:27N 49°18' W 122°58'0 0.1
2018-Jul-05 19:00N 49°18' W 122°58'0 0.1
2018-Jul-05 18:27N 49°18' W 122°58'0 0.1
2018-Jul-05 18:00N 49°18' W 122°58'0 0.0
2018-Jul-05 17:27N 49°18' W 122°58'0 0.1
2018-Jul-05 16:57N 49°18' W 122°58'0 0.1
2018-Jul-05 16:30N 49°18' W 122°58'0 0.0
2018-Jul-05 16:00N 49°18' W 122°58'0 0.0
2018-Jul-05 15:30N 49°18' W 122°58'0 0.1
2018-Jul-05 14:57N 49°18' W 122°58'0 0.1
2018-Jul-05 13:57N 49°18' W 122°58'0 0.0
2018-Jul-05 13:27N 49°18' W 122°58'0 0.0
2018-Jul-05 12:57N 49°18' W 122°58'0 0.0
2018-Jul-05 12:30N 49°18' W 122°58'0 0.0
2018-Jul-05 12:00N 49°18' W 122°58'0 0.0
2018-Jul-05 11:30N 49°18' W 122°58'0 0.0
2018-Jul-05 10:57N 49°18' W 122°58'0 0.0
2018-Jul-05 10:30N 49°18' W 122°58'0 0.0
2018-Jul-05 10:00N 49°18' W 122°58'0 0.0
2018-Jul-05 09:30N 49°18' W 122°58'0 0.0
2018-Jul-05 08:57N 49°18' W 122°58'0 0.1
2018-Jul-05 08:30N 49°18' W 122°58'0 0.0
2018-Jul-05 08:00N 49°18' W 122°58'0 0.0
2018-Jul-05 07:30N 49°18' W 122°58'0 0.0
2018-Jul-05 07:00N 49°18' W 122°58'0 0.2
2018-Jul-05 06:30N 49°18' W 122°58'0 0.1
2018-Jul-05 06:00N 49°18' W 122°58'0 0.1
2018-Jul-05 05:30N 49°18' W 122°58'0 0.1
2018-Jul-05 05:00N 49°18' W 122°58'0 0.0
2018-Jul-05 04:30N 49°18' W 122°58'0 0.2
2018-Jul-05 04:00N 49°18' W 122°58'0 0.1
2018-Jul-05 02:48N 49°18' W 122°58'0 0.0
2018-Jul-05 00:15N 49°18' W 122°58'0 0.0
2018-Jul-04 22:27N 49°18' W 122°58'0 0.2
2018-Jul-04 21:57N 49°18' W 122°58'0 0.0
2018-Jul-04 21:15N 49°18' W 122°58'0 0.1
2018-Jul-04 20:51N 49°18' W 122°58'0 0.0
2018-Jul-04 20:27N 49°18' W 122°58'0 0.0
2018-Jul-04 19:57N 49°18' W 122°58'0 0.1
2018-Jul-04 19:21N 49°18' W 122°58'0 0.0
2018-Jul-04 18:51N 49°18' W 122°58'0 0.0
2018-Jul-04 18:27N 49°18' W 122°58'0 0.0
2018-Jul-04 15:15N 49°18' W 122°58'0 0.0
2018-Jul-04 14:45N 49°18' W 122°58'0 0.0
2018-Jul-04 14:15N 49°18' W 122°58'0 0.0
2018-Jul-04 13:51N 49°18' W 122°58'0 0.0
2018-Jul-04 13:03N 49°18' W 122°58'0 0.0
2018-Jul-04 12:45N 49°18' W 122°58'0 0.0
2018-Jul-04 12:27N 49°18' W 122°58'0 0.0
2018-Jul-04 11:06N 49°18' W 122°58'0 0.1
2018-Jul-04 11:00N 49°18' W 122°58'0 0.0
2018-Jul-04 10:30N 49°18' W 122°58'0 0.0
2018-Jul-04 09:57N 49°18' W 122°58'0 0.0
2018-Jul-04 09:27N 49°18' W 122°58'0 0.0
2018-Jul-04 09:00N 49°18' W 122°58'0 0.0
2018-Jul-04 08:30N 49°18' W 122°58'0 0.0
2018-Jul-04 07:57N 49°18' W 122°58'0 0.0
2018-Jul-04 07:27N 49°18' W 122°58'0 0.0
2018-Jul-04 06:57N 49°18' W 122°58'0 0.1
2018-Jul-04 06:27N 49°18' W 122°58'0 0.2
2018-Jul-04 05:51N 49°18' W 122°58'0 0.1
2018-Jul-04 05:30N 49°18' W 122°58'0 0.0
2018-Jul-04 05:00N 49°18' W 122°58'0 0.0
2018-Jul-04 04:24N 49°18' W 122°58'0 0.1
2018-Jul-04 03:39N 49°18' W 122°58'0 0.0
2018-Jul-04 03:27N 49°18' W 122°58'0 0.1
2018-Jul-04 02:54N 49°18' W 122°58'0 0.1
2018-Jul-04 02:27N 49°18' W 122°58'0 0.0
2018-Jul-04 01:57N 49°18' W 122°58'0 0.0
2018-Jul-04 01:27N 49°18' W 122°58'0 0.0
2018-Jul-04 00:57N 49°18' W 122°58'0 0.0
2018-Jul-04 00:24N 49°18' W 122°58'0 0.2
2018-Jul-03 23:57N 49°18' W 122°58'0 0.2
2018-Jul-03 23:27N 49°18' W 122°58'0 0.0
2018-Jul-03 23:00N 49°18' W 122°58'0 0.1
2018-Jul-03 22:15N 49°18' W 122°58'0 0.0
2018-Jul-03 22:00N 49°18' W 122°58'0 0.1
2018-Jul-03 21:24N 49°18' W 122°58'0 0.0
2018-Jul-03 21:00N 49°18' W 122°58'0 0.1
2018-Jul-03 20:27N 49°18' W 122°58'0 0.0
2018-Jul-03 19:54N 49°18' W 122°58'0 0.0
2018-Jul-03 19:30N 49°18' W 122°58'0 0.0
2018-Jul-03 19:00N 49°18' W 122°58'0 0.0
2018-Jul-03 18:30N 49°18' W 122°58'0 0.0
2018-Jul-03 17:54N 49°18' W 122°58'0 0.0
2018-Jul-03 17:30N 49°18' W 122°58'0 0.0
2018-Jul-03 17:00N 49°18' W 122°58'0 0.0
2018-Jul-03 16:24N 49°18' W 122°58'0 0.1
2018-Jul-03 15:54N 49°18' W 122°58'0 0.1
2018-Jul-03 15:30N 49°18' W 122°58'0 0.2
2018-Jul-03 15:00N 49°18' W 122°58'0 0.1
2018-Jul-03 14:30N 49°18' W 122°58'0 0.0
2018-Jul-03 13:54N 49°18' W 122°58'0 0.1
2018-Jul-03 13:27N 49°18' W 122°58'0 0.0
2018-Jul-03 13:00N 49°18' W 122°58'0 0.0
2018-Jul-03 12:27N 49°18' W 122°58'0 0.1
2018-Jul-03 12:00N 49°18' W 122°58'0 0.1
2018-Jul-03 11:30N 49°18' W 122°58'0 0.0
2018-Jul-03 11:00N 49°18' W 122°58'0 0.1
2018-Jul-03 10:24N 49°18' W 122°58'0 0.0
2018-Jul-03 10:00N 49°18' W 122°58'0 0.0
2018-Jul-03 09:24N 49°18' W 122°58'0 0.1
2018-Jul-03 08:57N 49°18' W 122°58'0 0.0
2018-Jul-03 08:30N 49°18' W 122°58'0 0.0
2018-Jul-03 07:57N 49°18' W 122°58'0 0.0
2018-Jul-03 07:27N 49°18' W 122°58'0 0.0
2018-Jul-03 07:00N 49°18' W 122°58'0 0.0
2018-Jul-03 06:30N 49°18' W 122°58'0 0.1
2018-Jul-03 06:00N 49°18' W 122°58'0 0.3
2018-Jul-03 05:30N 49°18' W 122°58'0 0.1
2018-Jul-03 04:57N 49°18' W 122°58'0 0.1
2018-Jul-03 04:27N 49°18' W 122°58'0 0.0
2018-Jul-03 04:00N 49°18' W 122°58'0 0.0
2018-Jul-03 03:27N 49°18' W 122°58'0 0.0
2018-Jul-03 03:00N 49°18' W 122°58'0 0.0
2018-Jul-03 02:30N 49°18' W 122°58'0 0.0
2018-Jul-03 02:00N 49°18' W 122°58'0 0.1
2018-Jul-03 01:30N 49°18' W 122°58'0 0.1
2018-Jul-03 00:51N 49°18' W 122°58'0 0.0
2018-Jul-03 00:24N 49°18' W 122°58'0 0.0
2018-Jul-02 23:57N 49°18' W 122°58'0 0.0
2018-Jul-02 23:30N 49°18' W 122°58'0 0.1
2018-Jul-02 22:57N 49°18' W 122°58'0 0.2
2018-Jul-02 22:27N 49°18' W 122°58'0 0.1
2018-Jul-02 22:00N 49°18' W 122°58'0 0.0
2018-Jul-02 20:57N 49°18' W 122°58'0 0.1
2018-Jul-02 20:30N 49°18' W 122°58'0 0.1
2018-Jul-02 19:51N 49°18' W 122°58'0 0.0
2018-Jul-02 18:45N 49°18' W 122°58'0 0.2
2018-Jul-02 18:30N 49°18' W 122°58'0 0.0
2018-Jul-02 17:57N 49°18' W 122°58'0 0.1
2018-Jul-02 17:27N 49°18' W 122°58'0 0.0
2018-Jul-02 16:57N 49°18' W 122°58'0 0.1
2018-Jul-02 16:27N 49°18' W 122°58'0 0.1
2018-Jul-02 15:51N 49°18' W 122°58'0 0.0
2018-Jul-02 15:30N 49°18' W 122°58'0 0.3
2018-Jul-02 15:00N 49°18' W 122°58'0 0.2
2018-Jul-02 14:30N 49°18' W 122°58'0 0.0
2018-Jul-02 14:00N 49°18' W 122°58'0 0.0
2018-Jul-02 13:30N 49°18' W 122°58'0 0.0
2018-Jul-02 13:00N 49°18' W 122°58'0 0.0
2018-Jul-02 12:30N 49°18' W 122°58'0 0.0
2018-Jul-02 12:00N 49°18' W 122°58'0 0.1
2018-Jul-02 11:18N 49°18' W 122°58'0 0.3
2018-Jul-02 10:57N 49°18' W 122°58'0 0.1
2018-Jul-02 10:09N 49°18' W 122°58'0 0.0
2018-Jul-02 10:00N 49°18' W 122°58'0 0.0
2018-Jul-02 09:30N 49°18' W 122°58'0 0.0
2018-Jul-02 08:54N 49°18' W 122°58'0 0.0
2018-Jul-02 08:15N 49°18' W 122°58'0 0.0
2018-Jul-02 07:57N 49°18' W 122°58'0 0.1
2018-Jul-02 07:21N 49°18' W 122°58'0 0.1
2018-Jul-02 06:57N 49°18' W 122°58'0 0.0
2018-Jul-02 06:27N 49°18' W 122°58'0 0.1
2018-Jul-02 05:57N 49°18' W 122°58'0 0.1
2018-Jul-02 05:24N 49°18' W 122°58'0 0.4
2018-Jul-02 04:57N 49°18' W 122°58'0 0.0
2018-Jul-02 04:18N 49°18' W 122°58'0 0.0
2018-Jul-02 04:00N 49°18' W 122°58'0 0.1
2018-Jul-02 03:30N 49°18' W 122°58'0 0.0
2018-Jul-02 02:57N 49°18' W 122°58'0 0.0
2018-Jul-02 02:30N 49°18' W 122°58'0 0.0
2018-Jul-02 01:57N 49°18' W 122°58'0 0.0
2018-Jul-02 01:30N 49°18' W 122°58'0 0.0
2018-Jul-02 01:00N 49°18' W 122°58'0 0.0
2018-Jul-02 00:27N 49°18' W 122°58'0 0.0
2018-Jul-01 23:57N 49°18' W 122°58'0 0.1
2018-Jul-01 23:30N 49°18' W 122°58'0 0.1
2018-Jul-01 22:52N 49°18' W 122°58'0 0.0
2018-Jul-01 22:30N 49°18' W 122°58'0 0.1
2018-Jul-01 22:00N 49°18' W 122°58'0 0.1
2018-Jul-01 21:30N 49°18' W 122°58'0 0.1
2018-Jul-01 21:00N 49°18' W 122°58'0 0.1
2018-Jul-01 20:30N 49°18' W 122°58'1 1.8
2018-Jul-01 20:00N 49°18' W 122°56'2 4.8
2018-Jul-01 19:30N 49°18' W 122°53'1 0.8
2018-Jul-01 18:50N 49°17' W 122°52'0 0.0
2018-Jul-01 18:14N 49°17' W 122°52'0 0.0
2018-Jul-01 17:56N 49°17' W 122°52'0 0.0
2018-Jul-01 17:26N 49°17' W 122°52'0 0.0
2018-Jul-01 16:56N 49°17' W 122°52'0 0.0
2018-Jul-01 16:02N 49°17' W 122°52'0 0.0
2018-Jul-01 15:44N 49°17' W 122°52'0 0.0
2018-Jul-01 15:26N 49°17' W 122°52'0 0.0
2018-Jul-01 14:50N 49°17' W 122°52'0 0.0
2018-Jul-01 14:26N 49°17' W 122°52'0 0.0
2018-Jul-01 13:56N 49°17' W 122°52'0 0.0
2018-Jul-01 13:26N 49°17' W 122°52'0 0.0
2018-Jul-01 12:56N 49°17' W 122°52'0 0.0
2018-Jul-01 12:23N 49°17' W 122°52'0 0.0
2018-Jul-01 11:56N 49°17' W 122°52'0 0.0
2018-Jul-01 11:20N 49°17' W 122°52'0 0.0
2018-Jul-01 10:50N 49°17' W 122°52'0 0.0
2018-Jul-01 10:20N 49°17' W 122°52'0 0.0
2018-Jul-01 09:56N 49°17' W 122°52'0 0.0
2018-Jul-01 09:23N 49°17' W 122°52'0 0.0
2018-Jul-01 08:50N 49°17' W 122°52'0 0.0
2018-Jul-01 08:20N 49°17' W 122°52'0 0.0
2018-Jul-01 07:56N 49°17' W 122°52'0 0.0
2018-Jul-01 07:26N 49°17' W 122°52'0 0.0
2018-Jul-01 06:56N 49°17' W 122°52'0 0.0
2018-Jul-01 06:20N 49°17' W 122°52'0 0.0
2018-Jul-01 05:59N 49°17' W 122°52'0 0.0
2018-Jul-01 05:29N 49°17' W 122°52'0 0.0
2018-Jul-01 04:44N 49°17' W 122°52'0 0.0
2018-Jul-01 04:08N 49°17' W 122°52'0 0.0
2018-Jul-01 03:50N 49°17' W 122°52'0 0.0
2018-Jul-01 03:08N 49°17' W 122°52'0 0.0
2018-Jul-01 02:53N 49°17' W 122°52'0 0.0
2018-Jul-01 02:26N 49°17' W 122°52'0 0.0
2018-Jul-01 01:56N 49°17' W 122°52'0 0.0
2018-Jul-01 01:26N 49°17' W 122°52'0 0.0
2018-Jul-01 00:50N 49°17' W 122°52'0 0.0
2018-Jul-01 00:26N 49°17' W 122°52'0 0.0
2018-Jun-30 23:56N 49°17' W 122°52'0 0.0
2018-Jun-30 23:29N 49°17' W 122°52'0 0.0
2018-Jun-30 22:59N 49°17' W 122°52'0 0.0
2018-Jun-30 22:29N 49°17' W 122°52'0 0.0
2018-Jun-30 21:59N 49°17' W 122°52'0 0.0
2018-Jun-30 21:29N 49°17' W 122°52'0 0.0
2018-Jun-30 20:59N 49°17' W 122°52'0 0.0
2018-Jun-30 20:29N 49°17' W 122°52'0 0.0
2018-Jun-30 19:59N 49°17' W 122°52'0 0.0
2018-Jun-30 19:29N 49°17' W 122°52'0 0.0
2018-Jun-30 18:59N 49°17' W 122°52'0 0.0
2018-Jun-30 18:29N 49°17' W 122°52'0 0.0
2018-Jun-30 17:59N 49°17' W 122°52'0 0.0
2018-Jun-30 17:29N 49°17' W 122°52'0 0.0
2018-Jun-30 16:59N 49°17' W 122°52'0 0.0
2018-Jun-30 16:29N 49°17' W 122°52'0 0.0
2018-Jun-30 15:50N 49°17' W 122°52'0 0.0
2018-Jun-30 15:26N 49°17' W 122°52'0 0.0
2018-Jun-30 14:59N 49°17' W 122°52'0 0.0
2018-Jun-30 14:26N 49°17' W 122°52'0 0.0
2018-Jun-30 13:59N 49°17' W 122°52'0 0.0
2018-Jun-30 13:29N 49°17' W 122°52'0 0.0
2018-Jun-30 12:59N 49°17' W 122°52'0 0.0
2018-Jun-30 12:29N 49°17' W 122°52'0 0.0
2018-Jun-30 11:56N 49°17' W 122°52'0 0.0
2018-Jun-30 11:29N 49°17' W 122°52'0 0.0
2018-Jun-30 10:56N 49°17' W 122°52'0 0.0
2018-Jun-30 10:29N 49°17' W 122°52'0 0.6
2018-Jun-30 10:00N 49°18' W 122°52'2 4.9
2018-Jun-30 09:30N 49°18' W 122°56'3 6.7
2018-Jun-30 09:00N 49°18' W 123°01'0 0.8
2018-Jun-30 08:29N 49°18' W 123°02'0 0.0
2018-Jun-30 07:59N 49°18' W 123°02'0 0.0
2018-Jun-30 07:29N 49°18' W 123°02'0 0.0
2018-Jun-30 06:56N 49°18' W 123°02'0 0.0
2018-Jun-30 06:26N 49°18' W 123°02'0 0.0
2018-Jun-30 05:59N 49°18' W 123°02'0 0.0
2018-Jun-30 05:29N 49°18' W 123°02'0 0.0
2018-Jun-30 04:59N 49°18' W 123°02'0 0.0
2018-Jun-30 04:29N 49°18' W 123°02'0 0.0
2018-Jun-30 03:59N 49°18' W 123°02'0 0.0
2018-Jun-30 03:29N 49°18' W 123°02'0 0.0
2018-Jun-30 02:59N 49°18' W 123°02'0 0.0
2018-Jun-30 02:29N 49°18' W 123°02'0 0.0
2018-Jun-30 01:59N 49°18' W 123°02'0 0.0
2018-Jun-30 01:29N 49°18' W 123°02'0 0.0
2018-Jun-30 00:59N 49°18' W 123°02'0 0.0
2018-Jun-30 00:29N 49°18' W 123°02'0 0.0
2018-Jun-29 23:59N 49°18' W 123°02'0 0.0
2018-Jun-29 23:29N 49°18' W 123°02'0 0.0
2018-Jun-29 22:59N 49°18' W 123°02'0 0.0
2018-Jun-29 22:29N 49°18' W 123°02'0 0.0
2018-Jun-29 21:59N 49°18' W 123°02'0 0.0
2018-Jun-29 21:29N 49°18' W 123°02'0 0.0
2018-Jun-29 20:59N 49°18' W 123°02'0 0.0
2018-Jun-29 20:29N 49°18' W 123°02'0 0.0
2018-Jun-29 19:59N 49°18' W 123°02'0 0.0
2018-Jun-29 19:29N 49°18' W 123°02'  
Track history (hours):
 
Tides and Currents Weather Stations Pressure Air Temp Water Temp Dewpoint Dewpoint Depression Visibility Wind Speed Wind Dir Waves Ship Positions

Kiso

Last reported at 2018-Jul-09 18:56 UTC. Time now 2018-Jul-23 00:07 UTC.
Position N 48°30' W 125°60'.
Warning: this ship's position is 13 days out of date.

Length 170 m; draft 11.5 m.

Type: Ship (hazmat cat A). MMSI: 356958000.

Date/timePositionNaut miles runAvg speedWind from/ knotsBaromVisibWave heightAir tempDewpointWater temp
2018-Jul-09 18:56N 48°30' W 125°60'612.6
2018-Jul-09 18:28N 48°31' W 125°51'713.0
2018-Jul-09 17:58N 48°31' W 125°41'1412.8
2018-Jul-09 16:52N 48°31' W 125°20'512.7
2018-Jul-09 16:28N 48°31' W 125°12'612.5
2018-Jul-09 15:59N 48°31' W 125°03'612.5
2018-Jul-09 15:30N 48°31' W 124°54'713.6
2018-Jul-09 15:00N 48°31' W 124°44'714.3
2018-Jul-09 14:30N 48°28' W 124°34'714.4
2018-Jul-09 14:00N 48°25' W 124°24'714.5
2018-Jul-09 13:30N 48°22' W 124°14'714.3
2018-Jul-09 13:00N 48°20' W 124°04'714.0
2018-Jul-09 12:29N 48°17' W 123°53'914.7
2018-Jul-09 11:51N 48°16' W 123°39'813.0
2018-Jul-09 11:13N 48°18' W 123°28'312.8
2018-Jul-09 11:00N 48°21' W 123°26'5 8.9
2018-Jul-09 10:29N 48°23' W 123°19'611.9
2018-Jul-09 10:00N 48°26' W 123°12'713.8
2018-Jul-09 09:30N 48°33' W 123°13'713.5
2018-Jul-09 09:00N 48°39' W 123°15'510.8
2018-Jul-09 08:30N 48°44' W 123°10'612.0
2018-Jul-09 08:00N 48°47' W 123°02'510.6
2018-Jul-09 07:30N 48°52' W 123°05'612.6
2018-Jul-09 07:00N 48°56' W 123°12'612.2
2018-Jul-09 06:30N 49°00' W 123°19'611.9
2018-Jul-09 05:59N 49°05' W 123°25'613.2
2018-Jul-09 05:31N 49°11' W 123°22'612.7
2018-Jul-09 05:00N 49°17' W 123°19'611.4
2018-Jul-09 04:30N 49°19' W 123°11'4 7.4
2018-Jul-09 04:01N 49°18' W 123°06'4 7.7
2018-Jul-09 03:30N 49°18' W 122°60'1 2.9
2018-Jul-09 02:59N 49°18' W 122°58'0 0.2
2018-Jul-09 02:30N 49°18' W 122°57'2 4.4
2018-Jul-09 02:00N 49°18' W 122°54'1 2.5
2018-Jul-09 01:30N 49°17' W 122°52'0 0.0
2018-Jul-09 00:59N 49°17' W 122°52'0 0.0
2018-Jul-09 00:29N 49°17' W 122°52'0 0.0
2018-Jul-08 23:59N 49°17' W 122°52'0 0.0
2018-Jul-08 23:29N 49°17' W 122°52'0 0.0
2018-Jul-08 22:59N 49°17' W 122°52'0 0.0
2018-Jul-08 22:29N 49°17' W 122°52'0 0.0
2018-Jul-08 21:53N 49°17' W 122°52'0 0.0
2018-Jul-08 21:29N 49°17' W 122°52'0 0.0
2018-Jul-08 20:59N 49°17' W 122°52'0 0.0
2018-Jul-08 20:29N 49°17' W 122°52'0 0.0
2018-Jul-08 19:59N 49°17' W 122°52'0 0.0
2018-Jul-08 19:26N 49°17' W 122°52'0 0.0
2018-Jul-08 18:59N 49°17' W 122°52'0 0.0
2018-Jul-08 18:29N 49°17' W 122°52'0 0.0
2018-Jul-08 17:59N 49°17' W 122°52'0 0.0
2018-Jul-08 17:23N 49°17' W 122°52'0 0.0
2018-Jul-08 16:59N 49°17' W 122°52'0 0.0
2018-Jul-08 16:29N 49°17' W 122°52'0 0.0
2018-Jul-08 15:59N 49°17' W 122°52'0 0.0
2018-Jul-08 15:29N 49°17' W 122°52'0 0.0
2018-Jul-08 14:59N 49°17' W 122°52'0 0.0
2018-Jul-08 14:29N 49°17' W 122°52'0 0.0
2018-Jul-08 13:59N 49°17' W 122°52'0 0.0
2018-Jul-08 13:29N 49°17' W 122°52'0 0.0
2018-Jul-08 12:59N 49°17' W 122°52'0 0.0
2018-Jul-08 12:29N 49°17' W 122°52'0 0.0
2018-Jul-08 11:59N 49°17' W 122°52'0 0.0
2018-Jul-08 11:29N 49°17' W 122°52'0 0.0
2018-Jul-08 10:59N 49°17' W 122°52'0 0.0
2018-Jul-08 10:29N 49°17' W 122°52'0 0.0
2018-Jul-08 09:59N 49°17' W 122°52'0 0.0
2018-Jul-08 09:29N 49°17' W 122°52'0 0.0
2018-Jul-08 08:59N 49°17' W 122°52'0 0.0
2018-Jul-08 08:29N 49°17' W 122°52'0 0.0
2018-Jul-08 07:59N 49°17' W 122°52'0 0.0
2018-Jul-08 07:29N 49°17' W 122°52'0 0.0
2018-Jul-08 06:56N 49°17' W 122°52'0 0.0
2018-Jul-08 06:29N 49°17' W 122°52'0 0.0
2018-Jul-08 05:56N 49°17' W 122°52'0 0.0
2018-Jul-08 05:26N 49°17' W 122°52'0 0.0
2018-Jul-08 04:59N 49°17' W 122°52'0 0.0
2018-Jul-08 04:29N 49°17' W 122°52'0 0.0
2018-Jul-08 03:59N 49°17' W 122°52'0 0.0
2018-Jul-08 03:29N 49°17' W 122°52'0 0.0
2018-Jul-08 02:59N 49°17' W 122°52'0 0.0
2018-Jul-08 02:23N 49°17' W 122°52'0 0.0
2018-Jul-08 01:59N 49°17' W 122°52'0 0.0
2018-Jul-08 01:29N 49°17' W 122°52'0 0.0
2018-Jul-08 00:59N 49°17' W 122°52'0 0.0
2018-Jul-08 00:29N 49°17' W 122°52'0 0.0
2018-Jul-07 23:53N 49°17' W 122°52'0 0.0
2018-Jul-07 23:29N 49°17' W 122°52'0 0.0
2018-Jul-07 22:59N 49°17' W 122°52'0 0.0
2018-Jul-07 22:29N 49°17' W 122°52'0 0.0
2018-Jul-07 21:59N 49°17' W 122°52'0 0.0
2018-Jul-07 21:29N 49°17' W 122°52'0 0.0
2018-Jul-07 20:59N 49°17' W 122°52'0 0.0
2018-Jul-07 20:29N 49°17' W 122°52'0 0.0
2018-Jul-07 19:59N 49°17' W 122°52'0 0.0
2018-Jul-07 19:29N 49°17' W 122°52'0 0.0
2018-Jul-07 18:59N 49°17' W 122°52'0 0.0
2018-Jul-07 18:29N 49°17' W 122°52'0 0.0
2018-Jul-07 17:59N 49°17' W 122°52'0 0.0
2018-Jul-07 17:29N 49°17' W 122°52'0 0.0
2018-Jul-07 16:59N 49°17' W 122°52'0 0.0
2018-Jul-07 16:29N 49°17' W 122°52'0 0.0
2018-Jul-07 16:00N 49°17' W 122°52'1 2.2
2018-Jul-07 15:30N 49°18' W 122°54'3 5.2
2018-Jul-07 14:57N 49°18' W 122°58'0 0.0
2018-Jul-07 14:30N 49°18' W 122°58'0 0.0
2018-Jul-07 13:57N 49°18' W 122°58'0 0.0
2018-Jul-07 13:27N 49°18' W 122°58'0 0.0
2018-Jul-07 13:00N 49°18' W 122°58'0 0.0
2018-Jul-07 12:27N 49°18' W 122°58'0 0.0
2018-Jul-07 12:00N 49°18' W 122°58'0 0.0
2018-Jul-07 11:30N 49°18' W 122°58'0 0.0
2018-Jul-07 11:00N 49°18' W 122°58'0 0.0
2018-Jul-07 10:27N 49°18' W 122°58'0 0.0
2018-Jul-07 10:00N 49°18' W 122°58'0 0.0
2018-Jul-07 09:27N 49°18' W 122°58'0 0.0
2018-Jul-07 09:00N 49°18' W 122°58'0 0.0
2018-Jul-07 08:30N 49°18' W 122°58'0 0.0
2018-Jul-07 08:00N 49°18' W 122°58'0 0.1
2018-Jul-07 07:30N 49°18' W 122°58'0 0.2
2018-Jul-07 06:57N 49°18' W 122°58'0 0.2
2018-Jul-07 06:27N 49°18' W 122°58'0 0.1
2018-Jul-07 06:00N 49°18' W 122°58'0 0.0
2018-Jul-07 05:30N 49°18' W 122°58'0 0.0
2018-Jul-07 04:57N 49°18' W 122°58'0 0.1
2018-Jul-07 04:30N 49°18' W 122°58'0 0.0
2018-Jul-07 03:57N 49°18' W 122°58'0 0.0
2018-Jul-07 03:30N 49°18' W 122°58'0 0.0
2018-Jul-07 02:54N 49°18' W 122°58'0 0.0
2018-Jul-07 02:21N 49°18' W 122°58'0 0.1
2018-Jul-07 02:00N 49°18' W 122°58'0 0.1
2018-Jul-07 01:30N 49°18' W 122°58'0 0.2
2018-Jul-07 01:00N 49°18' W 122°58'0 0.3
2018-Jul-07 00:30N 49°18' W 122°58'0 0.1
2018-Jul-07 00:00N 49°18' W 122°58'0 0.1
2018-Jul-06 23:30N 49°18' W 122°58'0 0.0
2018-Jul-06 22:51N 49°18' W 122°58'0 0.0
2018-Jul-06 22:30N 49°18' W 122°58'0 0.0
2018-Jul-06 22:00N 49°18' W 122°58'0 0.0
2018-Jul-06 21:30N 49°18' W 122°58'0 0.0
2018-Jul-06 21:00N 49°18' W 122°58'0 0.0
2018-Jul-06 20:30N 49°18' W 122°58'0 0.0
2018-Jul-06 20:00N 49°18' W 122°58'0 0.1
2018-Jul-06 19:30N 49°18' W 122°58'0 0.0
2018-Jul-06 18:57N 49°18' W 122°58'0 0.1
2018-Jul-06 18:30N 49°18' W 122°58'0 0.0
2018-Jul-06 18:00N 49°18' W 122°58'0 0.1
2018-Jul-06 17:30N 49°18' W 122°58'0 0.1
2018-Jul-06 17:00N 49°18' W 122°58'0 0.2
2018-Jul-06 16:30N 49°18' W 122°58'0 0.0
2018-Jul-06 15:54N 49°18' W 122°58'0 0.1
2018-Jul-06 15:27N 49°18' W 122°58'0 0.0
2018-Jul-06 14:57N 49°18' W 122°58'0 0.1
2018-Jul-06 14:30N 49°18' W 122°58'0 0.0
2018-Jul-06 14:00N 49°18' W 122°58'0 0.0
2018-Jul-06 13:24N 49°18' W 122°58'0 0.0
2018-Jul-06 13:00N 49°18' W 122°58'0 0.0
2018-Jul-06 12:30N 49°18' W 122°58'0 0.0
2018-Jul-06 11:57N 49°18' W 122°58'0 0.0
2018-Jul-06 11:24N 49°18' W 122°58'0 0.0
2018-Jul-06 10:57N 49°18' W 122°58'0 0.0
2018-Jul-06 10:27N 49°18' W 122°58'0 0.0
2018-Jul-06 09:57N 49°18' W 122°58'0 0.0
2018-Jul-06 09:30N 49°18' W 122°58'0 0.0
2018-Jul-06 09:00N 49°18' W 122°58'0 0.0
2018-Jul-06 08:18N 49°18' W 122°58'0 0.0
2018-Jul-06 08:00N 49°18' W 122°58'0 0.0
2018-Jul-06 07:30N 49°18' W 122°58'0 0.1
2018-Jul-06 06:57N 49°18' W 122°58'0 0.3
2018-Jul-06 06:27N 49°18' W 122°58'0 0.2
2018-Jul-06 05:57N 49°18' W 122°58'0 0.1
2018-Jul-06 05:30N 49°18' W 122°58'0 0.0
2018-Jul-06 04:57N 49°18' W 122°58'0 0.1
2018-Jul-06 04:30N 49°18' W 122°58'0 0.0
2018-Jul-06 03:57N 49°18' W 122°58'0 0.0
2018-Jul-06 03:30N 49°18' W 122°58'0 0.0
2018-Jul-06 03:00N 49°18' W 122°58'0 0.0
2018-Jul-06 02:30N 49°18' W 122°58'0 0.0
2018-Jul-06 02:00N 49°18' W 122°58'0 0.0
2018-Jul-06 01:27N 49°18' W 122°58'0 0.0
2018-Jul-06 00:57N 49°18' W 122°58'0 0.0
2018-Jul-06 00:27N 49°18' W 122°58'0 0.0
2018-Jul-05 23:48N 49°18' W 122°58'0 0.1
2018-Jul-05 23:27N 49°18' W 122°58'0 0.1
2018-Jul-05 22:36N 49°18' W 122°58'0 0.0
2018-Jul-05 22:18N 49°18' W 122°58'0 0.2
2018-Jul-05 21:54N 49°18' W 122°58'0 0.2
2018-Jul-05 21:24N 49°18' W 122°58'0 0.2
2018-Jul-05 21:00N 49°18' W 122°58'0 0.1
2018-Jul-05 20:24N 49°18' W 122°58'0 0.0
2018-Jul-05 20:00N 49°18' W 122°58'0 0.0
2018-Jul-05 19:27N 49°18' W 122°58'0 0.1
2018-Jul-05 19:00N 49°18' W 122°58'0 0.1
2018-Jul-05 18:27N 49°18' W 122°58'0 0.1
2018-Jul-05 18:00N 49°18' W 122°58'0 0.0
2018-Jul-05 17:27N 49°18' W 122°58'0 0.1
2018-Jul-05 16:57N 49°18' W 122°58'0 0.1
2018-Jul-05 16:30N 49°18' W 122°58'0 0.0
2018-Jul-05 16:00N 49°18' W 122°58'0 0.0
2018-Jul-05 15:30N 49°18' W 122°58'0 0.1
2018-Jul-05 14:57N 49°18' W 122°58'0 0.1
2018-Jul-05 13:57N 49°18' W 122°58'0 0.0
2018-Jul-05 13:27N 49°18' W 122°58'0 0.0
2018-Jul-05 12:57N 49°18' W 122°58'0 0.0
2018-Jul-05 12:30N 49°18' W 122°58'0 0.0
2018-Jul-05 12:00N 49°18' W 122°58'0 0.0
2018-Jul-05 11:30N 49°18' W 122°58'0 0.0
2018-Jul-05 10:57N 49°18' W 122°58'0 0.0
2018-Jul-05 10:30N 49°18' W 122°58'0 0.0
2018-Jul-05 10:00N 49°18' W 122°58'0 0.0
2018-Jul-05 09:30N 49°18' W 122°58'0 0.0
2018-Jul-05 08:57N 49°18' W 122°58'0 0.1
2018-Jul-05 08:30N 49°18' W 122°58'0 0.0
2018-Jul-05 08:00N 49°18' W 122°58'0 0.0
2018-Jul-05 07:30N 49°18' W 122°58'0 0.0
2018-Jul-05 07:00N 49°18' W 122°58'0 0.2
2018-Jul-05 06:30N 49°18' W 122°58'0 0.1
2018-Jul-05 06:00N 49°18' W 122°58'0 0.1
2018-Jul-05 05:30N 49°18' W 122°58'0 0.1
2018-Jul-05 05:00N 49°18' W 122°58'0 0.0
2018-Jul-05 04:30N 49°18' W 122°58'0 0.2
2018-Jul-05 04:00N 49°18' W 122°58'0 0.1
2018-Jul-05 02:48N 49°18' W 122°58'0 0.0
2018-Jul-05 00:15N 49°18' W 122°58'0 0.0
2018-Jul-04 22:27N 49°18' W 122°58'0 0.2
2018-Jul-04 21:57N 49°18' W 122°58'0 0.0
2018-Jul-04 21:15N 49°18' W 122°58'0 0.1
2018-Jul-04 20:51N 49°18' W 122°58'0 0.0
2018-Jul-04 20:27N 49°18' W 122°58'0 0.0
2018-Jul-04 19:57N 49°18' W 122°58'0 0.1
2018-Jul-04 19:21N 49°18' W 122°58'0 0.0
2018-Jul-04 18:51N 49°18' W 122°58'0 0.0
2018-Jul-04 18:27N 49°18' W 122°58'0 0.0
2018-Jul-04 15:15N 49°18' W 122°58'0 0.0
2018-Jul-04 14:45N 49°18' W 122°58'0 0.0
2018-Jul-04 14:15N 49°18' W 122°58'0 0.0
2018-Jul-04 13:51N 49°18' W 122°58'0 0.0
2018-Jul-04 13:03N 49°18' W 122°58'0 0.0
2018-Jul-04 12:45N 49°18' W 122°58'0 0.0
2018-Jul-04 12:27N 49°18' W 122°58'0 0.0
2018-Jul-04 11:06N 49°18' W 122°58'0 0.1
2018-Jul-04 11:00N 49°18' W 122°58'0 0.0
2018-Jul-04 10:30N 49°18' W 122°58'0 0.0
2018-Jul-04 09:57N 49°18' W 122°58'0 0.0
2018-Jul-04 09:27N 49°18' W 122°58'0 0.0
2018-Jul-04 09:00N 49°18' W 122°58'0 0.0
2018-Jul-04 08:30N 49°18' W 122°58'0 0.0
2018-Jul-04 07:57N 49°18' W 122°58'0 0.0
2018-Jul-04 07:27N 49°18' W 122°58'0 0.0
2018-Jul-04 06:57N 49°18' W 122°58'0 0.1
2018-Jul-04 06:27N 49°18' W 122°58'0 0.2
2018-Jul-04 05:51N 49°18' W 122°58'0 0.1
2018-Jul-04 05:30N 49°18' W 122°58'0 0.0
2018-Jul-04 05:00N 49°18' W 122°58'0 0.0
2018-Jul-04 04:24N 49°18' W 122°58'0 0.1
2018-Jul-04 03:39N 49°18' W 122°58'0 0.0
2018-Jul-04 03:27N 49°18' W 122°58'0 0.1
2018-Jul-04 02:54N 49°18' W 122°58'0 0.1
2018-Jul-04 02:27N 49°18' W 122°58'0 0.0
2018-Jul-04 01:57N 49°18' W 122°58'0 0.0
2018-Jul-04 01:27N 49°18' W 122°58'0 0.0
2018-Jul-04 00:57N 49°18' W 122°58'0 0.0
2018-Jul-04 00:24N 49°18' W 122°58'0 0.2
2018-Jul-03 23:57N 49°18' W 122°58'0 0.2
2018-Jul-03 23:27N 49°18' W 122°58'0 0.0
2018-Jul-03 23:00N 49°18' W 122°58'0 0.1
2018-Jul-03 22:15N 49°18' W 122°58'0 0.0
2018-Jul-03 22:00N 49°18' W 122°58'0 0.1
2018-Jul-03 21:24N 49°18' W 122°58'0 0.0
2018-Jul-03 21:00N 49°18' W 122°58'0 0.1
2018-Jul-03 20:27N 49°18' W 122°58'0 0.0
2018-Jul-03 19:54N 49°18' W 122°58'0 0.0
2018-Jul-03 19:30N 49°18' W 122°58'0 0.0
2018-Jul-03 19:00N 49°18' W 122°58'0 0.0
2018-Jul-03 18:30N 49°18' W 122°58'0 0.0
2018-Jul-03 17:54N 49°18' W 122°58'0 0.0
2018-Jul-03 17:30N 49°18' W 122°58'0 0.0
2018-Jul-03 17:00N 49°18' W 122°58'0 0.0
2018-Jul-03 16:24N 49°18' W 122°58'0 0.1
2018-Jul-03 15:54N 49°18' W 122°58'0 0.1
2018-Jul-03 15:30N 49°18' W 122°58'0 0.2
2018-Jul-03 15:00N 49°18' W 122°58'0 0.1
2018-Jul-03 14:30N 49°18' W 122°58'0 0.0
2018-Jul-03 13:54N 49°18' W 122°58'0 0.1
2018-Jul-03 13:27N 49°18' W 122°58'0 0.0
2018-Jul-03 13:00N 49°18' W 122°58'0 0.0
2018-Jul-03 12:27N 49°18' W 122°58'0 0.1
2018-Jul-03 12:00N 49°18' W 122°58'0 0.1
2018-Jul-03 11:30N 49°18' W 122°58'0 0.0
2018-Jul-03 11:00N 49°18' W 122°58'0 0.1
2018-Jul-03 10:24N 49°18' W 122°58'0 0.0
2018-Jul-03 10:00N 49°18' W 122°58'0 0.0
2018-Jul-03 09:24N 49°18' W 122°58'0 0.1
2018-Jul-03 08:57N 49°18' W 122°58'0 0.0
2018-Jul-03 08:30N 49°18' W 122°58'0 0.0
2018-Jul-03 07:57N 49°18' W 122°58'0 0.0
2018-Jul-03 07:27N 49°18' W 122°58'0 0.0
2018-Jul-03 07:00N 49°18' W 122°58'0 0.0
2018-Jul-03 06:30N 49°18' W 122°58'0 0.1
2018-Jul-03 06:00N 49°18' W 122°58'0 0.3
2018-Jul-03 05:30N 49°18' W 122°58'0 0.1
2018-Jul-03 04:57N 49°18' W 122°58'0 0.1
2018-Jul-03 04:27N 49°18' W 122°58'0 0.0
2018-Jul-03 04:00N 49°18' W 122°58'0 0.0
2018-Jul-03 03:27N 49°18' W 122°58'0 0.0
2018-Jul-03 03:00N 49°18' W 122°58'0 0.0
2018-Jul-03 02:30N 49°18' W 122°58'0 0.0
2018-Jul-03 02:00N 49°18' W 122°58'0 0.1
2018-Jul-03 01:30N 49°18' W 122°58'0 0.1
2018-Jul-03 00:51N 49°18' W 122°58'0 0.0
2018-Jul-03 00:24N 49°18' W 122°58'0 0.0
2018-Jul-02 23:57N 49°18' W 122°58'0 0.0
2018-Jul-02 23:30N 49°18' W 122°58'0 0.1
2018-Jul-02 22:57N 49°18' W 122°58'0 0.2
2018-Jul-02 22:27N 49°18' W 122°58'0 0.1
2018-Jul-02 22:00N 49°18' W 122°58'0 0.0
2018-Jul-02 20:57N 49°18' W 122°58'0 0.1
2018-Jul-02 20:30N 49°18' W 122°58'0 0.1
2018-Jul-02 19:51N 49°18' W 122°58'0 0.0
2018-Jul-02 18:45N 49°18' W 122°58'0 0.2
2018-Jul-02 18:30N 49°18' W 122°58'0 0.0
2018-Jul-02 17:57N 49°18' W 122°58'0 0.1
2018-Jul-02 17:27N 49°18' W 122°58'0 0.0
2018-Jul-02 16:57N 49°18' W 122°58'0 0.1
2018-Jul-02 16:27N 49°18' W 122°58'0 0.1
2018-Jul-02 15:51N 49°18' W 122°58'0 0.0
2018-Jul-02 15:30N 49°18' W 122°58'0 0.3
2018-Jul-02 15:00N 49°18' W 122°58'0 0.2
2018-Jul-02 14:30N 49°18' W 122°58'0 0.0
2018-Jul-02 14:00N 49°18' W 122°58'0 0.0
2018-Jul-02 13:30N 49°18' W 122°58'0 0.0
2018-Jul-02 13:00N 49°18' W 122°58'0 0.0
2018-Jul-02 12:30N 49°18' W 122°58'0 0.0
2018-Jul-02 12:00N 49°18' W 122°58'0 0.1
2018-Jul-02 11:18N 49°18' W 122°58'0 0.3
2018-Jul-02 10:57N 49°18' W 122°58'0 0.1
2018-Jul-02 10:09N 49°18' W 122°58'0 0.0
2018-Jul-02 10:00N 49°18' W 122°58'0 0.0
2018-Jul-02 09:30N 49°18' W 122°58'0 0.0
2018-Jul-02 08:54N 49°18' W 122°58'0 0.0
2018-Jul-02 08:15N 49°18' W 122°58'0 0.0
2018-Jul-02 07:57N 49°18' W 122°58'0 0.1
2018-Jul-02 07:21N 49°18' W 122°58'0 0.1
2018-Jul-02 06:57N 49°18' W 122°58'0 0.0
2018-Jul-02 06:27N 49°18' W 122°58'0 0.1
2018-Jul-02 05:57N 49°18' W 122°58'0 0.1
2018-Jul-02 05:24N 49°18' W 122°58'0 0.4
2018-Jul-02 04:57N 49°18' W 122°58'0 0.0
2018-Jul-02 04:18N 49°18' W 122°58'0 0.0
2018-Jul-02 04:00N 49°18' W 122°58'0 0.1
2018-Jul-02 03:30N 49°18' W 122°58'0 0.0
2018-Jul-02 02:57N 49°18' W 122°58'0 0.0
2018-Jul-02 02:30N 49°18' W 122°58'0 0.0
2018-Jul-02 01:57N 49°18' W 122°58'0 0.0
2018-Jul-02 01:30N 49°18' W 122°58'0 0.0
2018-Jul-02 01:00N 49°18' W 122°58'0 0.0
2018-Jul-02 00:27N 49°18' W 122°58'0 0.0
2018-Jul-01 23:57N 49°18' W 122°58'0 0.1
2018-Jul-01 23:30N 49°18' W 122°58'0 0.1
2018-Jul-01 22:52N 49°18' W 122°58'0 0.0
2018-Jul-01 22:30N 49°18' W 122°58'0 0.1
2018-Jul-01 22:00N 49°18' W 122°58'0 0.1
2018-Jul-01 21:30N 49°18' W 122°58'0 0.1
2018-Jul-01 21:00N 49°18' W 122°58'0 0.1
2018-Jul-01 20:30N 49°18' W 122°58'1 1.8
2018-Jul-01 20:00N 49°18' W 122°56'2 4.8
2018-Jul-01 19:30N 49°18' W 122°53'1 0.8
2018-Jul-01 18:50N 49°17' W 122°52'0 0.0
2018-Jul-01 18:14N 49°17' W 122°52'0 0.0
2018-Jul-01 17:56N 49°17' W 122°52'0 0.0
2018-Jul-01 17:26N 49°17' W 122°52'0 0.0
2018-Jul-01 16:56N 49°17' W 122°52'0 0.0
2018-Jul-01 16:02N 49°17' W 122°52'0 0.0
2018-Jul-01 15:44N 49°17' W 122°52'0 0.0
2018-Jul-01 15:26N 49°17' W 122°52'0 0.0
2018-Jul-01 14:50N 49°17' W 122°52'0 0.0
2018-Jul-01 14:26N 49°17' W 122°52'0 0.0
2018-Jul-01 13:56N 49°17' W 122°52'0 0.0
2018-Jul-01 13:26N 49°17' W 122°52'0 0.0
2018-Jul-01 12:56N 49°17' W 122°52'0 0.0
2018-Jul-01 12:23N 49°17' W 122°52'0 0.0
2018-Jul-01 11:56N 49°17' W 122°52'0 0.0
2018-Jul-01 11:20N 49°17' W 122°52'0 0.0
2018-Jul-01 10:50N 49°17' W 122°52'0 0.0
2018-Jul-01 10:20N 49°17' W 122°52'0 0.0
2018-Jul-01 09:56N 49°17' W 122°52'0 0.0
2018-Jul-01 09:23N 49°17' W 122°52'0 0.0
2018-Jul-01 08:50N 49°17' W 122°52'0 0.0
2018-Jul-01 08:20N 49°17' W 122°52'0 0.0
2018-Jul-01 07:56N 49°17' W 122°52'0 0.0
2018-Jul-01 07:26N 49°17' W 122°52'0 0.0
2018-Jul-01 06:56N 49°17' W 122°52'0 0.0
2018-Jul-01 06:20N 49°17' W 122°52'0 0.0
2018-Jul-01 05:59N 49°17' W 122°52'0 0.0
2018-Jul-01 05:29N 49°17' W 122°52'0 0.0
2018-Jul-01 04:44N 49°17' W 122°52'0 0.0
2018-Jul-01 04:08N 49°17' W 122°52'0 0.0
2018-Jul-01 03:50N 49°17' W 122°52'0 0.0
2018-Jul-01 03:08N 49°17' W 122°52'0 0.0
2018-Jul-01 02:53N 49°17' W 122°52'0 0.0
2018-Jul-01 02:26N 49°17' W 122°52'0 0.0
2018-Jul-01 01:56N 49°17' W 122°52'0 0.0
2018-Jul-01 01:26N 49°17' W 122°52'0 0.0
2018-Jul-01 00:50N 49°17' W 122°52'0 0.0
2018-Jul-01 00:26N 49°17' W 122°52'0 0.0
2018-Jun-30 23:56N 49°17' W 122°52'0 0.0
2018-Jun-30 23:29N 49°17' W 122°52'0 0.0
2018-Jun-30 22:59N 49°17' W 122°52'0 0.0
2018-Jun-30 22:29N 49°17' W 122°52'0 0.0
2018-Jun-30 21:59N 49°17' W 122°52'0 0.0
2018-Jun-30 21:29N 49°17' W 122°52'0 0.0
2018-Jun-30 20:59N 49°17' W 122°52'0 0.0
2018-Jun-30 20:29N 49°17' W 122°52'0 0.0
2018-Jun-30 19:59N 49°17' W 122°52'0 0.0
2018-Jun-30 19:29N 49°17' W 122°52'0 0.0
2018-Jun-30 18:59N 49°17' W 122°52'0 0.0
2018-Jun-30 18:29N 49°17' W 122°52'0 0.0
2018-Jun-30 17:59N 49°17' W 122°52'0 0.0
2018-Jun-30 17:29N 49°17' W 122°52'0 0.0
2018-Jun-30 16:59N 49°17' W 122°52'0 0.0
2018-Jun-30 16:29N 49°17' W 122°52'0 0.0
2018-Jun-30 15:50N 49°17' W 122°52'0 0.0
2018-Jun-30 15:26N 49°17' W 122°52'0 0.0
2018-Jun-30 14:59N 49°17' W 122°52'0 0.0
2018-Jun-30 14:26N 49°17' W 122°52'0 0.0
2018-Jun-30 13:59N 49°17' W 122°52'0 0.0
2018-Jun-30 13:29N 49°17' W 122°52'0 0.0
2018-Jun-30 12:59N 49°17' W 122°52'0 0.0
2018-Jun-30 12:29N 49°17' W 122°52'0 0.0
2018-Jun-30 11:56N 49°17' W 122°52'0 0.0
2018-Jun-30 11:29N 49°17' W 122°52'0 0.0
2018-Jun-30 10:56N 49°17' W 122°52'0 0.0
2018-Jun-30 10:29N 49°17' W 122°52'0 0.6
2018-Jun-30 10:00N 49°18' W 122°52'2 4.9
2018-Jun-30 09:30N 49°18' W 122°56'3 6.7
2018-Jun-30 09:00N 49°18' W 123°01'0 0.8
2018-Jun-30 08:29N 49°18' W 123°02'0 0.0
2018-Jun-30 07:59N 49°18' W 123°02'0 0.0
2018-Jun-30 07:29N 49°18' W 123°02'0 0.0
2018-Jun-30 06:56N 49°18' W 123°02'0 0.0
2018-Jun-30 06:26N 49°18' W 123°02'0 0.0
2018-Jun-30 05:59N 49°18' W 123°02'0 0.0
2018-Jun-30 05:29N 49°18' W 123°02'0 0.0
2018-Jun-30 04:59N 49°18' W 123°02'0 0.0
2018-Jun-30 04:29N 49°18' W 123°02'0 0.0
2018-Jun-30 03:59N 49°18' W 123°02'0 0.0
2018-Jun-30 03:29N 49°18' W 123°02'0 0.0
2018-Jun-30 02:59N 49°18' W 123°02'0 0.0
2018-Jun-30 02:29N 49°18' W 123°02'0 0.0
2018-Jun-30 01:59N 49°18' W 123°02'0 0.0
2018-Jun-30 01:29N 49°18' W 123°02'0 0.0
2018-Jun-30 00:59N 49°18' W 123°02'0 0.0
2018-Jun-30 00:29N 49°18' W 123°02'0 0.0
2018-Jun-29 23:59N 49°18' W 123°02'0 0.0
2018-Jun-29 23:29N 49°18' W 123°02'0 0.0
2018-Jun-29 22:59N 49°18' W 123°02'0 0.0
2018-Jun-29 22:29N 49°18' W 123°02'0 0.0
2018-Jun-29 21:59N 49°18' W 123°02'0 0.0
2018-Jun-29 21:29N 49°18' W 123°02'0 0.0
2018-Jun-29 20:59N 49°18' W 123°02'0 0.0
2018-Jun-29 20:29N 49°18' W 123°02'0 0.0
2018-Jun-29 19:59N 49°18' W 123°02'0 0.0
2018-Jun-29 19:29N 49°18' W 123°02'  

Dump ship's entire track history